sensor_id;sensor_type;location;lat;lon;timestamp;noise_LAeq;noise_LA_min;noise_LA_max;noise_LA01;noise_LA95
68279;Laerm;55108;51.790;10.960;2023-05-10T00:00:26;31.68;26.29;46.66;;
68279;Laerm;55108;51.790;10.960;2023-05-10T00:02:52;29.68;26.39;47.97;;
68279;Laerm;55108;51.790;10.960;2023-05-10T00:05:18;34.17;27.31;44.67;;
68279;Laerm;55108;51.790;10.960;2023-05-10T00:07:43;28.84;26.06;35.10;;
68279;Laerm;55108;51.790;10.960;2023-05-10T00:10:11;33.34;26.42;48.70;;
68279;Laerm;55108;51.790;10.960;2023-05-10T00:12:36;27.53;26.12;34.84;;
68279;Laerm;55108;51.790;10.960;2023-05-10T00:15:01;30.44;26.17;41.77;;
68279;Laerm;55108;51.790;10.960;2023-05-10T00:17:27;27.37;25.93;31.48;;
68279;Laerm;55108;51.790;10.960;2023-05-10T00:19:53;28.29;26.09;35.82;;
68279;Laerm;55108;51.790;10.960;2023-05-10T00:22:18;28.64;26.24;36.19;;
68279;Laerm;55108;51.790;10.960;2023-05-10T00:24:43;28.95;26.42;40.03;;
68279;Laerm;55108;51.790;10.960;2023-05-10T00:27:08;27.47;26.11;39.44;;
68279;Laerm;55108;51.790;10.960;2023-05-10T00:29:33;30.28;26.31;39.50;;
68279;Laerm;55108;51.790;10.960;2023-05-10T00:31:58;28.59;26.53;38.94;;
68279;Laerm;55108;51.790;10.960;2023-05-10T00:34:23;52.78;27.99;70.48;;
68279;Laerm;55108;51.790;10.960;2023-05-10T00:36:49;57.25;27.69;73.56;;
68279;Laerm;55108;51.790;10.960;2023-05-10T00:39:14;58.23;26.71;77.07;;
68279;Laerm;55108;51.790;10.960;2023-05-10T00:41:40;29.04;26.43;42.16;;
68279;Laerm;55108;51.790;10.960;2023-05-10T00:44:05;30.29;26.67;42.56;;
68279;Laerm;55108;51.790;10.960;2023-05-10T00:46:30;28.43;26.40;36.61;;
68279;Laerm;55108;51.790;10.960;2023-05-10T00:48:55;55.86;26.23;74.20;;
68279;Laerm;55108;51.790;10.960;2023-05-10T00:51:21;42.48;26.42;63.21;;
68279;Laerm;55108;51.790;10.960;2023-05-10T00:53:46;27.90;26.10;40.18;;
68279;Laerm;55108;51.790;10.960;2023-05-10T00:56:13;28.57;25.96;36.37;;
68279;Laerm;55108;51.790;10.960;2023-05-10T00:58:39;53.32;26.33;71.05;;
68279;Laerm;55108;51.790;10.960;2023-05-10T01:01:04;31.63;26.96;47.60;;
68279;Laerm;55108;51.790;10.960;2023-05-10T01:03:30;55.95;27.42;71.08;;
68279;Laerm;55108;51.790;10.960;2023-05-10T01:05:56;60.80;26.45;80.42;;
68279;Laerm;55108;51.790;10.960;2023-05-10T01:08:21;37.37;26.77;50.34;;
68279;Laerm;55108;51.790;10.960;2023-05-10T01:10:46;56.81;26.84;74.94;;
68279;Laerm;55108;51.790;10.960;2023-05-10T01:13:13;29.64;26.46;46.75;;
68279;Laerm;55108;51.790;10.960;2023-05-10T01:15:43;29.07;26.58;47.84;;
68279;Laerm;55108;51.790;10.960;2023-05-10T01:18:09;30.84;26.15;42.52;;
68279;Laerm;55108;51.790;10.960;2023-05-10T01:20:39;30.40;26.34;45.44;;
68279;Laerm;55108;51.790;10.960;2023-05-10T01:26:17;60.40;26.79;78.20;;
68279;Laerm;55108;51.790;10.960;2023-05-10T01:38:51;57.54;26.16;78.12;;
68279;Laerm;55108;51.790;10.960;2023-05-10T01:41:39;27.25;25.96;35.20;;
68279;Laerm;55108;51.790;10.960;2023-05-10T01:46:53;55.24;26.17;75.24;;
68279;Laerm;55108;51.790;10.960;2023-05-10T01:49:25;62.04;27.09;82.38;;
68279;Laerm;55108;51.790;10.960;2023-05-10T01:51:52;56.88;28.13;75.02;;
68279;Laerm;55108;51.790;10.960;2023-05-10T01:54:19;37.43;27.44;51.99;;
68279;Laerm;55108;51.790;10.960;2023-05-10T01:56:45;32.02;26.47;51.13;;
68279;Laerm;55108;51.790;10.960;2023-05-10T01:59:13;34.46;26.43;56.35;;
68279;Laerm;55108;51.790;10.960;2023-05-10T02:01:40;60.77;27.32;77.89;;
68279;Laerm;55108;51.790;10.960;2023-05-10T02:04:06;57.57;29.69;76.95;;
68279;Laerm;55108;51.790;10.960;2023-05-10T02:06:32;45.12;27.27;63.05;;
68279;Laerm;55108;51.790;10.960;2023-05-10T02:08:58;62.45;27.33;82.53;;
68279;Laerm;55108;51.790;10.960;2023-05-10T02:11:25;37.94;26.37;56.32;;
68279;Laerm;55108;51.790;10.960;2023-05-10T02:13:52;51.78;27.81;68.81;;
68279;Laerm;55108;51.790;10.960;2023-05-10T02:16:18;40.39;28.45;58.46;;
68279;Laerm;55108;51.790;10.960;2023-05-10T02:18:45;54.67;27.83;73.65;;
68279;Laerm;55108;51.790;10.960;2023-05-10T02:21:12;55.06;26.64;69.09;;
68279;Laerm;55108;51.790;10.960;2023-05-10T02:23:38;41.86;26.69;58.58;;
68279;Laerm;55108;51.790;10.960;2023-05-10T02:26:04;44.38;26.80;60.44;;
68279;Laerm;55108;51.790;10.960;2023-05-10T02:28:30;60.10;27.32;76.83;;
68279;Laerm;55108;51.790;10.960;2023-05-10T02:30:56;56.31;28.12;73.27;;
68279;Laerm;55108;51.790;10.960;2023-05-10T02:33:22;56.07;28.02;72.20;;
68279;Laerm;55108;51.790;10.960;2023-05-10T02:35:47;51.30;31.26;65.92;;
68279;Laerm;55108;51.790;10.960;2023-05-10T02:38:13;57.78;30.83;75.06;;
68279;Laerm;55108;51.790;10.960;2023-05-10T02:40:39;57.32;31.51;74.05;;
68279;Laerm;55108;51.790;10.960;2023-05-10T02:43:05;50.22;29.65;65.12;;
68279;Laerm;55108;51.790;10.960;2023-05-10T02:45:31;54.77;29.17;69.56;;
68279;Laerm;55108;51.790;10.960;2023-05-10T02:47:57;57.67;30.46;73.89;;
68279;Laerm;55108;51.790;10.960;2023-05-10T02:50:23;57.73;32.52;76.27;;
68279;Laerm;55108;51.790;10.960;2023-05-10T02:52:50;62.33;35.00;79.72;;
68279;Laerm;55108;51.790;10.960;2023-05-10T02:55:21;60.16;33.28;75.85;;
68279;Laerm;55108;51.790;10.960;2023-05-10T02:57:57;56.21;34.18;72.36;;
68279;Laerm;55108;51.790;10.960;2023-05-10T03:00:24;58.45;33.08;74.83;;
68279;Laerm;55108;51.790;10.960;2023-05-10T03:02:49;55.17;33.69;73.06;;
68279;Laerm;55108;51.790;10.960;2023-05-10T03:05:14;58.70;34.43;72.77;;
68279;Laerm;55108;51.790;10.960;2023-05-10T03:07:39;57.68;37.05;73.80;;
68279;Laerm;55108;51.790;10.960;2023-05-10T03:10:04;53.65;37.10;69.31;;
68279;Laerm;55108;51.790;10.960;2023-05-10T03:12:47;65.84;38.31;81.92;;
68279;Laerm;55108;51.790;10.960;2023-05-10T03:15:22;60.74;36.42;77.60;;
68279;Laerm;55108;51.790;10.960;2023-05-10T03:17:57;60.98;36.28;76.68;;
68279;Laerm;55108;51.790;10.960;2023-05-10T03:20:31;61.64;36.63;74.89;;
68279;Laerm;55108;51.790;10.960;2023-05-10T03:23:07;57.69;35.44;76.42;;
68279;Laerm;55108;51.790;10.960;2023-05-10T03:25:35;66.53;40.08;80.83;;
68279;Laerm;55108;51.790;10.960;2023-05-10T03:28:02;61.97;37.92;74.76;;
68279;Laerm;55108;51.790;10.960;2023-05-10T03:30:29;63.24;40.05;77.34;;
68279;Laerm;55108;51.790;10.960;2023-05-10T03:32:54;63.32;39.63;74.92;;
68279;Laerm;55108;51.790;10.960;2023-05-10T03:35:19;67.65;38.13;80.22;;
68279;Laerm;55108;51.790;10.960;2023-05-10T03:37:45;64.66;40.25;77.58;;
68279;Laerm;55108;51.790;10.960;2023-05-10T03:40:10;62.05;36.92;73.81;;
68279;Laerm;55108;51.790;10.960;2023-05-10T03:42:35;64.38;35.88;80.70;;
68279;Laerm;55108;51.790;10.960;2023-05-10T03:45:00;60.53;37.26;75.88;;
68279;Laerm;55108;51.790;10.960;2023-05-10T03:47:26;63.56;36.74;76.57;;
68279;Laerm;55108;51.790;10.960;2023-05-10T03:49:51;62.22;36.87;77.80;;
68279;Laerm;55108;51.790;10.960;2023-05-10T03:52:16;68.03;38.33;79.18;;
68279;Laerm;55108;51.790;10.960;2023-05-10T03:54:41;63.23;36.91;78.65;;
68279;Laerm;55108;51.790;10.960;2023-05-10T03:57:06;68.47;36.96;80.00;;
68279;Laerm;55108;51.790;10.960;2023-05-10T03:59:32;63.62;33.00;77.69;;
68279;Laerm;55108;51.790;10.960;2023-05-10T04:01:57;65.42;41.82;77.07;;
68279;Laerm;55108;51.790;10.960;2023-05-10T04:04:22;68.68;40.07;83.45;;
68279;Laerm;55108;51.790;10.960;2023-05-10T04:06:48;67.69;37.14;85.48;;
68279;Laerm;55108;51.790;10.960;2023-05-10T04:09:13;61.30;35.80;74.58;;
68279;Laerm;55108;51.790;10.960;2023-05-10T04:11:38;65.11;41.63;78.08;;
68279;Laerm;55108;51.790;10.960;2023-05-10T04:14:04;66.30;39.05;82.27;;
68279;Laerm;55108;51.790;10.960;2023-05-10T04:16:29;62.79;37.19;77.67;;
68279;Laerm;55108;51.790;10.960;2023-05-10T04:18:54;69.00;47.72;83.39;;
68279;Laerm;55108;51.790;10.960;2023-05-10T04:21:19;62.37;40.89;75.81;;
68279;Laerm;55108;51.790;10.960;2023-05-10T04:23:44;69.17;44.39;79.50;;
68279;Laerm;55108;51.790;10.960;2023-05-10T04:26:09;63.52;38.41;80.41;;
68279;Laerm;55108;51.790;10.960;2023-05-10T04:28:34;66.05;37.74;77.18;;
68279;Laerm;55108;51.790;10.960;2023-05-10T04:31:03;66.85;40.21;84.64;;
68279;Laerm;55108;51.790;10.960;2023-05-10T04:33:28;65.68;43.18;79.49;;
68279;Laerm;55108;51.790;10.960;2023-05-10T04:35:54;67.11;38.57;80.77;;
68279;Laerm;55108;51.790;10.960;2023-05-10T04:38:19;68.30;45.68;82.88;;
68279;Laerm;55108;51.790;10.960;2023-05-10T04:40:44;66.84;43.31;81.12;;
68279;Laerm;55108;51.790;10.960;2023-05-10T04:43:09;64.77;43.36;81.06;;
68279;Laerm;55108;51.790;10.960;2023-05-10T04:45:34;66.23;41.20;79.40;;
68279;Laerm;55108;51.790;10.960;2023-05-10T04:47:59;68.73;45.35;81.96;;
68279;Laerm;55108;51.790;10.960;2023-05-10T04:50:24;65.98;41.54;83.22;;
68279;Laerm;55108;51.790;10.960;2023-05-10T04:52:50;65.03;42.93;76.78;;
68279;Laerm;55108;51.790;10.960;2023-05-10T04:55:15;68.65;42.38;81.87;;
68279;Laerm;55108;51.790;10.960;2023-05-10T04:57:41;65.91;40.88;77.00;;
68279;Laerm;55108;51.790;10.960;2023-05-10T05:00:06;66.02;42.24;78.39;;
68279;Laerm;55108;51.790;10.960;2023-05-10T05:02:31;69.93;43.70;85.40;;
68279;Laerm;55108;51.790;10.960;2023-05-10T05:04:56;67.05;42.24;81.72;;
68279;Laerm;55108;51.790;10.960;2023-05-10T05:07:22;67.40;37.27;80.25;;
68279;Laerm;55108;51.790;10.960;2023-05-10T05:09:47;66.85;43.99;76.00;;
68279;Laerm;55108;51.790;10.960;2023-05-10T05:12:13;68.41;45.60;80.30;;
68279;Laerm;55108;51.790;10.960;2023-05-10T05:14:39;68.85;44.69;80.77;;
68279;Laerm;55108;51.790;10.960;2023-05-10T05:17:04;67.52;44.06;82.57;;
68279;Laerm;55108;51.790;10.960;2023-05-10T05:19:30;66.94;45.79;79.85;;
68279;Laerm;55108;51.790;10.960;2023-05-10T05:21:55;66.40;42.88;77.24;;
68279;Laerm;55108;51.790;10.960;2023-05-10T05:24:21;67.07;44.81;79.19;;
68279;Laerm;55108;51.790;10.960;2023-05-10T05:26:46;66.42;45.47;77.35;;
68279;Laerm;55108;51.790;10.960;2023-05-10T05:29:11;66.15;41.91;79.40;;
68279;Laerm;55108;51.790;10.960;2023-05-10T05:31:36;65.07;39.82;77.00;;
68279;Laerm;55108;51.790;10.960;2023-05-10T05:34:01;65.56;42.11;79.56;;
68279;Laerm;55108;51.790;10.960;2023-05-10T05:36:27;69.12;48.12;79.23;;
68279;Laerm;55108;51.790;10.960;2023-05-10T05:38:52;67.41;43.18;77.45;;
68279;Laerm;55108;51.790;10.960;2023-05-10T05:41:17;66.48;44.79;77.64;;
68279;Laerm;55108;51.790;10.960;2023-05-10T05:43:42;69.11;47.38;80.92;;
68279;Laerm;55108;51.790;10.960;2023-05-10T05:46:07;66.11;46.63;76.92;;
68279;Laerm;55108;51.790;10.960;2023-05-10T05:48:32;68.36;50.29;81.19;;
68279;Laerm;55108;51.790;10.960;2023-05-10T05:50:57;67.47;47.82;79.80;;
68279;Laerm;55108;51.790;10.960;2023-05-10T05:53:23;65.00;43.30;77.68;;
68279;Laerm;55108;51.790;10.960;2023-05-10T05:55:51;69.31;46.30;81.75;;
68279;Laerm;55108;51.790;10.960;2023-05-10T05:58:17;66.80;46.46;78.78;;
68279;Laerm;55108;51.790;10.960;2023-05-10T06:00:42;64.15;36.80;75.83;;
68279;Laerm;55108;51.790;10.960;2023-05-10T06:03:08;66.60;44.68;76.79;;
68279;Laerm;55108;51.790;10.960;2023-05-10T06:05:33;67.96;47.66;79.05;;
68279;Laerm;55108;51.790;10.960;2023-05-10T06:07:59;68.33;49.08;79.62;;
68279;Laerm;55108;51.790;10.960;2023-05-10T06:10:24;63.97;43.89;79.01;;
68279;Laerm;55108;51.790;10.960;2023-05-10T06:12:50;65.54;42.99;76.78;;
68279;Laerm;55108;51.790;10.960;2023-05-10T06:15:15;67.12;38.53;86.98;;
68279;Laerm;55108;51.790;10.960;2023-05-10T06:17:40;68.02;40.21;81.31;;
68279;Laerm;55108;51.790;10.960;2023-05-10T06:20:06;66.72;44.60;80.10;;
68279;Laerm;55108;51.790;10.960;2023-05-10T06:22:31;63.84;42.60;75.48;;
68279;Laerm;55108;51.790;10.960;2023-05-10T06:24:56;69.92;40.63;78.07;;
68279;Laerm;55108;51.790;10.960;2023-05-10T06:27:21;72.93;61.82;88.39;;
68279;Laerm;55108;51.790;10.960;2023-05-10T06:29:47;75.34;67.87;83.81;;
68279;Laerm;55108;51.790;10.960;2023-05-10T06:32:12;73.17;65.80;81.20;;
68279;Laerm;55108;51.790;10.960;2023-05-10T06:34:37;72.83;57.16;86.91;;
68279;Laerm;55108;51.790;10.960;2023-05-10T06:37:02;70.24;61.38;80.30;;
68279;Laerm;55108;51.790;10.960;2023-05-10T06:39:28;68.17;58.75;80.67;;
68279;Laerm;55108;51.790;10.960;2023-05-10T06:41:53;67.85;58.85;80.14;;
68279;Laerm;55108;51.790;10.960;2023-05-10T06:44:19;68.58;55.97;82.93;;
68279;Laerm;55108;51.790;10.960;2023-05-10T06:46:44;69.11;53.92;82.31;;
68279;Laerm;55108;51.790;10.960;2023-05-10T06:49:09;67.55;51.00;78.14;;
68279;Laerm;55108;51.790;10.960;2023-05-10T06:51:34;65.32;50.02;76.69;;
68279;Laerm;55108;51.790;10.960;2023-05-10T06:53:59;64.89;49.59;77.94;;
68279;Laerm;55108;51.790;10.960;2023-05-10T06:56:25;70.67;52.70;81.93;;
68279;Laerm;55108;51.790;10.960;2023-05-10T06:58:50;69.66;52.73;81.94;;
68279;Laerm;55108;51.790;10.960;2023-05-10T07:01:16;69.12;53.01;82.05;;
68279;Laerm;55108;51.790;10.960;2023-05-10T07:03:41;68.19;47.48;79.04;;
68279;Laerm;55108;51.790;10.960;2023-05-10T07:06:06;68.55;40.71;83.77;;
68279;Laerm;55108;51.790;10.960;2023-05-10T07:08:32;67.34;43.06;80.87;;
68279;Laerm;55108;51.790;10.960;2023-05-10T07:11:01;66.16;45.55;78.25;;
68279;Laerm;55108;51.790;10.960;2023-05-10T07:13:28;71.63;50.49;86.47;;
68279;Laerm;55108;51.790;10.960;2023-05-10T07:15:53;68.94;47.21;79.69;;
68279;Laerm;55108;51.790;10.960;2023-05-10T07:18:18;65.76;44.39;74.70;;
68279;Laerm;55108;51.790;10.960;2023-05-10T07:20:43;69.21;42.59;83.46;;
68279;Laerm;55108;51.790;10.960;2023-05-10T07:23:08;68.53;49.44;82.81;;
68279;Laerm;55108;51.790;10.960;2023-05-10T07:25:33;66.22;43.02;75.96;;
68279;Laerm;55108;51.790;10.960;2023-05-10T07:27:58;67.23;43.78;77.18;;
68279;Laerm;55108;51.790;10.960;2023-05-10T07:30:24;68.02;43.59;83.02;;
68279;Laerm;55108;51.790;10.960;2023-05-10T07:32:49;64.67;45.00;74.90;;
68279;Laerm;55108;51.790;10.960;2023-05-10T07:35:14;68.29;45.10;80.98;;
68279;Laerm;55108;51.790;10.960;2023-05-10T07:37:39;67.68;42.53;79.27;;
68279;Laerm;55108;51.790;10.960;2023-05-10T07:40:04;68.90;41.94;87.67;;
68279;Laerm;55108;51.790;10.960;2023-05-10T07:42:30;68.32;41.18;81.91;;
68279;Laerm;55108;51.790;10.960;2023-05-10T07:44:55;68.62;48.43;79.55;;
68279;Laerm;55108;51.790;10.960;2023-05-10T07:47:20;66.42;41.89;77.10;;
68279;Laerm;55108;51.790;10.960;2023-05-10T07:49:45;68.70;46.29;82.94;;
68279;Laerm;55108;51.790;10.960;2023-05-10T07:52:10;67.38;46.08;79.48;;
68279;Laerm;55108;51.790;10.960;2023-05-10T07:54:36;65.25;42.09;76.64;;
68279;Laerm;55108;51.790;10.960;2023-05-10T07:57:01;65.40;41.18;76.76;;
68279;Laerm;55108;51.790;10.960;2023-05-10T07:59:26;64.92;43.19;75.86;;
68279;Laerm;55108;51.790;10.960;2023-05-10T08:01:51;68.03;44.44;80.65;;
68279;Laerm;55108;51.790;10.960;2023-05-10T08:04:16;67.52;43.23;79.12;;
68279;Laerm;55108;51.790;10.960;2023-05-10T08:06:41;67.33;43.73;79.00;;
68279;Laerm;55108;51.790;10.960;2023-05-10T08:09:06;65.55;42.37;80.39;;
68279;Laerm;55108;51.790;10.960;2023-05-10T08:11:31;68.13;44.75;83.86;;
68279;Laerm;55108;51.790;10.960;2023-05-10T08:13:57;71.59;43.69;85.53;;
68279;Laerm;55108;51.790;10.960;2023-05-10T08:16:22;67.92;43.56;80.28;;
68279;Laerm;55108;51.790;10.960;2023-05-10T08:18:47;68.97;46.51;83.74;;
68279;Laerm;55108;51.790;10.960;2023-05-10T08:21:12;68.19;50.92;77.56;;
68279;Laerm;55108;51.790;10.960;2023-05-10T08:23:38;67.92;45.14;78.67;;
68279;Laerm;55108;51.790;10.960;2023-05-10T08:26:03;67.81;46.78;79.15;;
68279;Laerm;55108;51.790;10.960;2023-05-10T08:28:28;65.23;45.08;74.96;;
68279;Laerm;55108;51.790;10.960;2023-05-10T08:30:54;67.84;42.65;78.42;;
68279;Laerm;55108;51.790;10.960;2023-05-10T08:33:19;68.00;47.04;79.38;;
68279;Laerm;55108;51.790;10.960;2023-05-10T08:35:44;71.28;49.35;100.24;;
68279;Laerm;55108;51.790;10.960;2023-05-10T08:38:09;64.61;51.62;76.62;;
68279;Laerm;55108;51.790;10.960;2023-05-10T08:40:35;74.04;48.52;92.92;;
68279;Laerm;55108;51.790;10.960;2023-05-10T08:43:05;72.68;55.35;86.50;;
68279;Laerm;55108;51.790;10.960;2023-05-10T08:45:37;68.24;46.83;83.88;;
68279;Laerm;55108;51.790;10.960;2023-05-10T08:48:02;68.04;47.75;76.43;;
68279;Laerm;55108;51.790;10.960;2023-05-10T08:50:29;66.82;44.41;79.65;;
68279;Laerm;55108;51.790;10.960;2023-05-10T08:52:55;66.16;40.20;80.24;;
68279;Laerm;55108;51.790;10.960;2023-05-10T08:55:23;68.79;44.82;82.25;;
68279;Laerm;55108;51.790;10.960;2023-05-10T08:57:48;66.54;44.52;78.98;;
68279;Laerm;55108;51.790;10.960;2023-05-10T09:00:14;71.17;50.45;83.79;;
68279;Laerm;55108;51.790;10.960;2023-05-10T09:02:39;69.95;48.56;84.53;;
68279;Laerm;55108;51.790;10.960;2023-05-10T09:05:05;69.76;49.37;81.31;;
68279;Laerm;55108;51.790;10.960;2023-05-10T09:07:30;67.29;42.43;79.56;;
68279;Laerm;55108;51.790;10.960;2023-05-10T09:09:56;65.88;39.60;76.34;;
68279;Laerm;55108;51.790;10.960;2023-05-10T09:12:22;66.98;37.47;79.94;;
68279;Laerm;55108;51.790;10.960;2023-05-10T09:14:47;67.95;41.35;80.25;;
68279;Laerm;55108;51.790;10.960;2023-05-10T09:17:13;66.69;45.64;77.06;;
68279;Laerm;55108;51.790;10.960;2023-05-10T09:19:38;67.39;47.88;76.47;;
68279;Laerm;55108;51.790;10.960;2023-05-10T09:22:03;67.73;45.91;77.53;;
68279;Laerm;55108;51.790;10.960;2023-05-10T09:24:29;67.82;44.49;82.51;;
68279;Laerm;55108;51.790;10.960;2023-05-10T09:26:54;68.92;49.14;82.94;;
68279;Laerm;55108;51.790;10.960;2023-05-10T09:29:21;67.81;42.13;79.09;;
68279;Laerm;55108;51.790;10.960;2023-05-10T09:31:47;68.01;43.96;79.49;;
68279;Laerm;55108;51.790;10.960;2023-05-10T09:34:15;67.17;44.51;77.28;;
68279;Laerm;55108;51.790;10.960;2023-05-10T09:36:57;68.72;49.58;83.27;;
68279;Laerm;55108;51.790;10.960;2023-05-10T09:39:38;68.61;49.24;79.98;;
68279;Laerm;55108;51.790;10.960;2023-05-10T09:42:08;67.03;43.91;79.87;;
68279;Laerm;55108;51.790;10.960;2023-05-10T09:44:33;66.26;46.44;84.90;;
68279;Laerm;55108;51.790;10.960;2023-05-10T09:46:59;68.11;49.94;81.28;;
68279;Laerm;55108;51.790;10.960;2023-05-10T09:49:24;67.85;42.91;78.94;;
68279;Laerm;55108;51.790;10.960;2023-05-10T09:52:00;67.06;47.08;77.56;;
68279;Laerm;55108;51.790;10.960;2023-05-10T09:54:25;68.33;50.96;79.97;;
68279;Laerm;55108;51.790;10.960;2023-05-10T09:56:50;67.92;46.06;78.70;;
68279;Laerm;55108;51.790;10.960;2023-05-10T09:59:15;69.17;44.71;82.03;;
68279;Laerm;55108;51.790;10.960;2023-05-10T10:01:41;67.52;44.71;77.11;;
68279;Laerm;55108;51.790;10.960;2023-05-10T10:04:07;68.37;50.53;82.22;;
68279;Laerm;55108;51.790;10.960;2023-05-10T10:06:37;68.89;49.55;81.09;;
68279;Laerm;55108;51.790;10.960;2023-05-10T10:09:03;67.69;46.48;82.13;;
68279;Laerm;55108;51.790;10.960;2023-05-10T10:11:28;68.33;49.08;80.03;;
68279;Laerm;55108;51.790;10.960;2023-05-10T10:13:54;67.79;44.24;80.81;;
68279;Laerm;55108;51.790;10.960;2023-05-10T10:16:19;67.51;46.23;82.20;;
68279;Laerm;55108;51.790;10.960;2023-05-10T10:18:45;66.79;44.14;78.58;;
68279;Laerm;55108;51.790;10.960;2023-05-10T10:21:10;68.73;47.95;80.87;;
68279;Laerm;55108;51.790;10.960;2023-05-10T10:23:37;67.07;49.38;77.14;;
68279;Laerm;55108;51.790;10.960;2023-05-10T10:26:03;67.04;45.08;76.00;;
68279;Laerm;55108;51.790;10.960;2023-05-10T10:28:32;68.21;49.00;78.23;;
68279;Laerm;55108;51.790;10.960;2023-05-10T10:31:01;71.82;48.41;84.04;;
68279;Laerm;55108;51.790;10.960;2023-05-10T10:33:40;69.44;53.23;80.22;;
68279;Laerm;55108;51.790;10.960;2023-05-10T10:36:12;68.82;48.33;83.42;;
68279;Laerm;55108;51.790;10.960;2023-05-10T10:41:26;70.47;48.54;82.65;;
68279;Laerm;55108;51.790;10.960;2023-05-10T10:44:22;67.73;49.40;81.46;;
68279;Laerm;55108;51.790;10.960;2023-05-10T10:46:59;67.40;42.68;79.40;;
68279;Laerm;55108;51.790;10.960;2023-05-10T10:49:25;68.22;48.53;79.44;;
68279;Laerm;55108;51.790;10.960;2023-05-10T10:54:34;70.81;51.92;82.24;;
68279;Laerm;55108;51.790;10.960;2023-05-10T10:57:10;68.32;49.13;81.50;;
68279;Laerm;55108;51.790;10.960;2023-05-10T10:59:35;69.81;44.78;85.61;;
68279;Laerm;55108;51.790;10.960;2023-05-10T11:02:00;67.23;45.69;78.73;;
68279;Laerm;55108;51.790;10.960;2023-05-10T11:04:25;66.46;41.14;77.45;;
68279;Laerm;55108;51.790;10.960;2023-05-10T11:06:51;67.08;42.55;77.01;;
68279;Laerm;55108;51.790;10.960;2023-05-10T11:09:39;70.01;45.55;81.30;;
68279;Laerm;55108;51.790;10.960;2023-05-10T11:12:07;65.67;41.99;77.22;;
68279;Laerm;55108;51.790;10.960;2023-05-10T11:14:33;68.18;45.81;79.64;;
68279;Laerm;55108;51.790;10.960;2023-05-10T11:16:58;67.46;45.53;78.66;;
68279;Laerm;55108;51.790;10.960;2023-05-10T11:19:23;70.65;48.10;82.82;;
68279;Laerm;55108;51.790;10.960;2023-05-10T11:22:11;71.65;45.16;85.01;;
68279;Laerm;55108;51.790;10.960;2023-05-10T11:24:37;67.81;45.78;81.80;;
68279;Laerm;55108;51.790;10.960;2023-05-10T11:27:03;67.11;44.33;81.61;;
68279;Laerm;55108;51.790;10.960;2023-05-10T11:29:28;69.21;44.61;84.04;;
68279;Laerm;55108;51.790;10.960;2023-05-10T11:31:53;67.36;43.94;77.48;;
68279;Laerm;55108;51.790;10.960;2023-05-10T11:34:24;71.07;44.90;84.69;;
68279;Laerm;55108;51.790;10.960;2023-05-10T11:36:53;67.17;40.87;79.00;;
68279;Laerm;55108;51.790;10.960;2023-05-10T11:39:19;72.05;50.38;84.11;;
68279;Laerm;55108;51.790;10.960;2023-05-10T11:41:46;68.33;42.64;77.44;;
68279;Laerm;55108;51.790;10.960;2023-05-10T11:44:12;69.64;41.68;82.74;;
68279;Laerm;55108;51.790;10.960;2023-05-10T11:46:37;73.48;43.02;86.27;;
68279;Laerm;55108;51.790;10.960;2023-05-10T11:49:02;72.70;48.71;94.80;;
68279;Laerm;55108;51.790;10.960;2023-05-10T11:51:29;67.48;47.31;78.52;;
68279;Laerm;55108;51.790;10.960;2023-05-10T11:53:54;68.83;44.51;83.12;;
68279;Laerm;55108;51.790;10.960;2023-05-10T11:56:20;72.00;46.79;83.60;;
68279;Laerm;55108;51.790;10.960;2023-05-10T11:58:45;66.33;50.32;76.00;;
68279;Laerm;55108;51.790;10.960;2023-05-10T12:01:16;67.27;46.66;76.56;;
68279;Laerm;55108;51.790;10.960;2023-05-10T12:03:41;69.06;48.37;80.29;;
68279;Laerm;55108;51.790;10.960;2023-05-10T12:06:07;68.18;45.48;78.99;;
68279;Laerm;55108;51.790;10.960;2023-05-10T12:08:32;69.63;45.41;83.79;;
68279;Laerm;55108;51.790;10.960;2023-05-10T12:11:04;68.29;49.07;79.86;;
68279;Laerm;55108;51.790;10.960;2023-05-10T12:13:29;67.95;47.87;81.47;;
68279;Laerm;55108;51.790;10.960;2023-05-10T12:15:57;67.28;42.60;78.42;;
68279;Laerm;55108;51.790;10.960;2023-05-10T12:18:22;66.39;43.09;77.93;;
68279;Laerm;55108;51.790;10.960;2023-05-10T12:20:48;67.39;42.69;79.89;;
68279;Laerm;55108;51.790;10.960;2023-05-10T12:23:16;66.81;42.64;78.38;;
68279;Laerm;55108;51.790;10.960;2023-05-10T12:25:41;69.13;46.09;79.65;;
68279;Laerm;55108;51.790;10.960;2023-05-10T12:28:07;68.57;44.26;81.28;;
68279;Laerm;55108;51.790;10.960;2023-05-10T12:30:33;69.15;48.30;83.00;;
68279;Laerm;55108;51.790;10.960;2023-05-10T12:32:59;68.12;45.78;78.23;;
68279;Laerm;55108;51.790;10.960;2023-05-10T12:35:25;67.35;49.64;80.78;;
68279;Laerm;55108;51.790;10.960;2023-05-10T12:37:51;68.52;44.52;84.23;;
68279;Laerm;55108;51.790;10.960;2023-05-10T12:40:16;67.68;45.20;78.97;;
68279;Laerm;55108;51.790;10.960;2023-05-10T12:42:41;69.26;45.76;84.18;;
68279;Laerm;55108;51.790;10.960;2023-05-10T12:45:07;68.67;49.31;79.46;;
68279;Laerm;55108;51.790;10.960;2023-05-10T12:47:32;69.51;48.50;80.94;;
68279;Laerm;55108;51.790;10.960;2023-05-10T12:49:59;65.65;49.44;76.03;;
68279;Laerm;55108;51.790;10.960;2023-05-10T12:52:25;68.11;50.94;77.50;;
68279;Laerm;55108;51.790;10.960;2023-05-10T12:54:50;68.45;42.07;78.61;;
68279;Laerm;55108;51.790;10.960;2023-05-10T12:57:16;68.72;49.02;81.15;;
68279;Laerm;55108;51.790;10.960;2023-05-10T12:59:41;69.51;44.98;88.60;;
68279;Laerm;55108;51.790;10.960;2023-05-10T13:02:06;65.98;40.51;78.75;;
68279;Laerm;55108;51.790;10.960;2023-05-10T13:04:31;67.47;43.42;77.29;;
68279;Laerm;55108;51.790;10.960;2023-05-10T13:06:57;69.23;43.42;86.55;;
68279;Laerm;55108;51.790;10.960;2023-05-10T13:09:23;66.67;48.08;75.51;;
68279;Laerm;55108;51.790;10.960;2023-05-10T13:11:49;67.75;47.00;81.55;;
68279;Laerm;55108;51.790;10.960;2023-05-10T13:14:15;67.39;48.29;78.90;;
68279;Laerm;55108;51.790;10.960;2023-05-10T13:16:40;67.47;42.09;80.01;;
68279;Laerm;55108;51.790;10.960;2023-05-10T13:19:05;67.10;41.67;79.60;;
68279;Laerm;55108;51.790;10.960;2023-05-10T13:21:30;68.31;50.12;79.48;;
68279;Laerm;55108;51.790;10.960;2023-05-10T13:23:55;70.41;47.95;85.23;;
68279;Laerm;55108;51.790;10.960;2023-05-10T13:26:20;66.68;45.15;76.09;;
68279;Laerm;55108;51.790;10.960;2023-05-10T13:28:46;69.55;43.77;82.39;;
68279;Laerm;55108;51.790;10.960;2023-05-10T13:31:11;69.00;47.85;81.42;;
68279;Laerm;55108;51.790;10.960;2023-05-10T13:33:36;68.77;49.14;77.75;;
68279;Laerm;55108;51.790;10.960;2023-05-10T13:36:01;67.92;46.59;78.44;;
68279;Laerm;55108;51.790;10.960;2023-05-10T13:38:26;68.95;46.44;81.30;;
68279;Laerm;55108;51.790;10.960;2023-05-10T13:40:51;66.38;41.91;76.00;;
68279;Laerm;55108;51.790;10.960;2023-05-10T13:43:18;66.91;41.62;77.69;;
68279;Laerm;55108;51.790;10.960;2023-05-10T13:45:43;67.83;46.62;79.28;;
68279;Laerm;55108;51.790;10.960;2023-05-10T13:48:08;69.18;48.80;78.76;;